createdAt,value
2022-11-13T00:01:17.654Z,7.70
2022-11-13T00:04:02.525Z,7.63
2022-11-13T00:06:47.872Z,7.40
2022-11-13T00:09:33.377Z,7.32
2022-11-13T00:12:18.447Z,7.57
2022-11-13T00:15:03.917Z,7.63
2022-11-13T00:17:48.991Z,8.05
2022-11-13T00:20:35.751Z,8.38
2022-11-13T00:23:20.922Z,8.18
2022-11-13T00:26:14.845Z,7.78
2022-11-13T00:29:01.914Z,7.43
2022-11-13T00:31:47.438Z,9.50
2022-11-13T00:34:46.990Z,8.07
2022-11-13T00:37:33.038Z,7.55
2022-11-13T00:40:18.122Z,8.05
2022-11-13T00:43:03.087Z,7.57
2022-11-13T00:45:48.001Z,7.90
2022-11-13T00:48:33.932Z,8.20
2022-11-13T00:51:19.728Z,7.65
2022-11-13T00:54:04.886Z,7.68
2022-11-13T00:56:50.231Z,7.47
2022-11-13T00:59:35.356Z,7.60
2022-11-13T01:02:20.694Z,7.38
2022-11-13T01:05:06.060Z,8.43
2022-11-13T01:07:51.104Z,7.25
2022-11-13T01:10:40.689Z,6.88
2022-11-13T01:13:25.848Z,7.78
2022-11-13T01:16:13.858Z,7.70
2022-11-13T01:18:59.138Z,7.28
2022-11-13T01:21:44.433Z,8.02
2022-11-13T01:24:30.926Z,7.55
2022-11-13T01:27:16.277Z,7.78
2022-11-13T01:30:01.277Z,7.78
2022-11-13T01:32:46.441Z,6.80
2022-11-13T01:35:31.476Z,7.57
2022-11-13T01:38:16.426Z,7.78
2022-11-13T01:41:01.931Z,7.60
2022-11-13T01:43:47.887Z,7.65
2022-11-13T01:46:33.890Z,7.50
2022-11-13T01:49:37.000Z,7.72
2022-11-13T01:52:41.142Z,7.57
2022-11-13T01:55:26.447Z,7.75
2022-11-13T01:58:13.274Z,7.93
2022-11-13T02:00:58.443Z,8.15
2022-11-13T02:03:43.664Z,7.35
2022-11-13T02:06:36.595Z,7.45
2022-11-13T02:09:26.520Z,7.45
2022-11-13T02:12:14.842Z,7.45
2022-11-13T02:15:02.347Z,7.35
2022-11-13T02:17:52.590Z,7.28
2022-11-13T02:21:03.160Z,6.97
2022-11-13T02:24:05.249Z,7.10
2022-11-13T02:26:53.890Z,7.43
2022-11-13T02:29:38.886Z,7.63
2022-11-13T02:32:24.181Z,8.05
2022-11-13T02:35:09.219Z,8.35
2022-11-13T02:38:02.335Z,7.95
2022-11-13T02:40:47.269Z,8.30
2022-11-13T02:43:32.427Z,7.78
2022-11-13T02:46:17.490Z,7.18
2022-11-13T02:49:02.989Z,7.28
2022-11-13T02:51:48.456Z,8.02
2022-11-13T02:54:33.627Z,7.85
2022-11-13T02:57:18.900Z,7.72
2022-11-13T03:00:07.972Z,7.57
2022-11-13T03:02:57.516Z,7.75
2022-11-13T03:05:42.650Z,8.15
2022-11-13T03:08:28.168Z,8.65
2022-11-13T03:11:13.639Z,7.72
2022-11-13T03:13:58.897Z,7.65
2022-11-13T03:16:44.173Z,8.38
2022-11-13T03:19:29.521Z,8.57
2022-11-13T03:22:14.621Z,8.40
2022-11-13T03:24:59.768Z,8.07
2022-11-13T03:27:45.092Z,8.48
2022-11-13T03:30:30.533Z,7.85
2022-11-13T03:33:15.986Z,8.32
2022-11-13T03:36:01.033Z,7.88
2022-11-13T03:38:46.138Z,8.63
2022-11-13T03:41:30.987Z,7.75
2022-11-13T03:44:16.187Z,8.52
2022-11-13T03:47:01.645Z,8.73
2022-11-13T03:49:46.907Z,8.30
2022-11-13T03:52:31.993Z,8.48
2022-11-13T03:55:16.961Z,8.45
2022-11-13T03:58:01.924Z,8.75
2022-11-13T04:00:47.800Z,9.65
2022-11-13T04:03:32.826Z,8.80
2022-11-13T04:06:18.228Z,9.50
2022-11-13T04:09:03.128Z,10.35
2022-11-13T04:11:48.491Z,8.77
2022-11-13T04:14:33.339Z,8.68
2022-11-13T04:17:18.882Z,8.27
2022-11-13T04:20:04.448Z,9.07
2022-11-13T04:22:49.391Z,9.07
2022-11-13T04:25:34.868Z,8.63
2022-11-13T04:28:20.055Z,9.00
2022-11-13T04:31:06.462Z,7.90
2022-11-13T04:33:51.749Z,9.43
2022-11-13T04:36:37.226Z,9.13
2022-11-13T04:39:22.193Z,8.88
2022-11-13T04:42:25.888Z,8.52
2022-11-13T04:45:11.243Z,9.02
2022-11-13T04:47:56.600Z,8.70
2022-11-13T04:50:41.800Z,8.38
2022-11-13T04:53:26.980Z,8.13
2022-11-13T04:56:11.827Z,8.75
2022-11-13T04:58:57.180Z,9.27
2022-11-13T05:01:42.366Z,9.18
2022-11-13T05:04:27.691Z,8.88
2022-11-13T05:07:13.067Z,10.10
2022-11-13T05:09:58.420Z,9.18
2022-11-13T05:12:43.716Z,9.27
2022-11-13T05:15:28.946Z,9.07
2022-11-13T05:18:14.407Z,9.10
2022-11-13T05:20:59.406Z,9.70
2022-11-13T05:23:44.686Z,9.23
2022-11-13T05:26:30.087Z,8.77
2022-11-13T05:29:15.286Z,9.85
2022-11-13T05:32:00.558Z,8.88
2022-11-13T05:34:45.651Z,9.00
2022-11-13T05:37:31.094Z,9.13
2022-11-13T05:40:16.494Z,8.38
2022-11-13T05:43:01.395Z,8.50
2022-11-13T05:45:46.613Z,8.45
2022-11-13T05:48:32.157Z,9.50
2022-11-13T05:51:21.123Z,9.27
2022-11-13T05:54:06.475Z,8.38
2022-11-13T05:56:51.677Z,8.45
2022-11-13T05:59:37.173Z,8.73
2022-11-13T06:02:22.526Z,9.43
2022-11-13T06:05:07.876Z,8.80
2022-11-13T06:07:52.877Z,8.88
2022-11-13T06:10:38.289Z,8.93
2022-11-13T06:13:23.397Z,8.68
2022-11-13T06:16:11.681Z,8.95
2022-11-13T06:18:59.522Z,8.27
2022-11-13T06:21:44.641Z,8.40
2022-11-13T06:24:29.726Z,8.85
2022-11-13T06:27:15.082Z,9.15
2022-11-13T06:30:00.217Z,9.10
2022-11-13T06:32:45.161Z,10.07
2022-11-13T06:35:30.829Z,9.15
2022-11-13T06:38:16.006Z,9.27
2022-11-13T06:41:02.068Z,8.80
2022-11-13T06:43:47.747Z,9.95
2022-11-13T06:46:32.851Z,10.43
2022-11-13T06:49:17.944Z,10.23
2022-11-13T06:52:03.101Z,10.43
2022-11-13T06:54:48.320Z,9.98
2022-11-13T06:57:33.430Z,9.85
2022-11-13T07:00:18.822Z,10.43
2022-11-13T07:03:03.890Z,10.23
2022-11-13T07:05:49.615Z,11.52
2022-11-13T07:08:34.960Z,11.60
2022-11-13T07:11:23.335Z,11.70
2022-11-13T07:14:10.920Z,11.95
2022-11-13T07:17:09.354Z,14.77
2022-11-13T07:19:55.430Z,13.43
2022-11-13T07:22:40.366Z,13.23
2022-11-13T07:25:27.091Z,12.88
2022-11-13T07:28:12.561Z,11.45
2022-11-13T07:30:58.951Z,11.77
2022-11-13T07:33:44.984Z,11.15
2022-11-13T07:36:30.014Z,12.52
2022-11-13T07:39:14.978Z,12.20
2022-11-13T07:42:00.224Z,11.63
2022-11-13T07:44:54.432Z,10.68
2022-11-13T07:47:40.710Z,10.10
2022-11-13T07:50:31.274Z,10.70
2022-11-13T07:53:17.356Z,9.63
2022-11-13T07:56:04.047Z,9.07
2022-11-13T07:58:49.839Z,10.70
2022-11-13T08:01:35.029Z,10.00
2022-11-13T08:04:20.213Z,10.63
2022-11-13T08:07:05.484Z,9.68
2022-11-13T08:09:50.952Z,9.73
2022-11-13T08:12:36.029Z,9.30
2022-11-13T08:15:20.987Z,10.32
2022-11-13T08:18:06.666Z,9.55
2022-11-13T08:20:51.668Z,9.77
2022-11-13T08:23:36.582Z,9.68
2022-11-13T08:26:22.545Z,10.27
2022-11-13T08:29:07.571Z,10.88
2022-11-13T08:31:52.697Z,10.95
2022-11-13T08:34:40.030Z,10.13
2022-11-13T08:37:25.165Z,9.60
2022-11-13T08:40:10.860Z,10.20
2022-11-13T08:43:00.639Z,10.43
2022-11-13T08:45:47.195Z,11.32
2022-11-13T08:48:32.554Z,10.93
2022-11-13T08:51:18.330Z,11.27
2022-11-13T08:54:03.721Z,12.07
2022-11-13T08:56:52.982Z,14.30
2022-11-13T08:59:41.046Z,15.32
2022-11-13T09:02:27.183Z,16.65
2022-11-13T09:05:12.505Z,15.75
2022-11-13T09:07:59.402Z,15.80
2022-11-13T09:10:44.861Z,16.80
2022-11-13T09:13:30.718Z,18.10
2022-11-13T09:16:15.724Z,19.58
2022-11-13T09:19:01.244Z,26.15
2022-11-13T09:21:47.156Z,27.00
2022-11-13T09:24:32.878Z,19.00
2022-11-13T09:27:18.391Z,26.17
2022-11-13T09:30:04.153Z,15.98
2022-11-13T09:32:54.406Z,13.82
2022-11-13T09:35:39.394Z,16.65
2022-11-13T09:38:24.618Z,15.52
2022-11-13T09:41:11.511Z,15.15
2022-11-13T09:44:01.612Z,19.40
2022-11-13T09:47:19.980Z,15.35
2022-11-13T09:50:11.011Z,17.77
2022-11-13T09:52:57.212Z,17.05
2022-11-13T09:56:17.174Z,18.80
2022-11-13T09:59:11.892Z,16.00
2022-11-13T10:02:30.229Z,19.73
2022-11-13T10:05:15.500Z,19.35
2022-11-13T10:08:06.249Z,17.55
2022-11-13T10:10:59.481Z,35.97
2022-11-13T10:13:49.214Z,25.10
2022-11-13T10:16:45.073Z,23.38
2022-11-13T10:19:40.397Z,31.33
2022-11-13T10:22:35.958Z,15.68
2022-11-13T10:25:28.676Z,17.65
2022-11-13T10:31:51.043Z,16.27
2022-11-13T10:34:36.025Z,15.48
2022-11-13T10:37:55.994Z,18.77
2022-11-13T10:40:41.362Z,17.98
2022-11-13T10:43:27.320Z,16.33
2022-11-13T10:46:19.309Z,14.25
2022-11-13T10:49:21.784Z,15.20
2022-11-13T10:52:47.766Z,14.10
2022-11-13T10:55:40.692Z,14.52
2022-11-13T10:58:26.512Z,17.08
2022-11-13T11:01:21.905Z,27.77
2022-11-13T11:04:20.278Z,14.65
2022-11-13T11:07:21.563Z,15.55
2022-11-13T11:10:29.879Z,12.40
2022-11-13T11:13:22.779Z,13.57
2022-11-13T11:16:10.550Z,12.40
2022-11-13T11:19:04.139Z,13.20
2022-11-13T11:21:53.499Z,12.95
2022-11-13T11:24:45.304Z,12.50
2022-11-13T11:27:39.951Z,12.88
2022-11-13T11:30:26.799Z,12.88
2022-11-13T11:33:35.518Z,11.70
2022-11-13T11:36:41.902Z,12.18
2022-11-13T11:39:50.437Z,12.70
2022-11-13T11:43:01.401Z,12.35
2022-11-13T11:45:47.343Z,11.85
2022-11-13T11:48:34.408Z,12.68
2022-11-13T11:51:31.212Z,11.93
2022-11-13T11:54:42.299Z,13.98
2022-11-13T11:57:55.298Z,13.18
2022-11-13T12:00:50.153Z,14.15
2022-11-13T12:04:16.091Z,12.65
2022-11-13T12:07:37.849Z,12.55
2022-11-13T12:10:43.118Z,12.63
2022-11-13T12:13:31.614Z,13.27
2022-11-13T12:16:28.053Z,13.10
2022-11-13T12:19:23.264Z,12.30
2022-11-13T12:22:25.818Z,13.05
2022-11-13T12:25:24.532Z,13.02
2022-11-13T12:28:13.412Z,13.15
2022-11-13T12:31:11.752Z,15.38
2022-11-13T12:34:06.220Z,14.10
2022-11-13T12:36:52.876Z,15.20
2022-11-13T12:40:01.489Z,16.95
2022-11-13T12:42:51.340Z,14.52
2022-11-13T12:45:36.564Z,14.65
2022-11-13T12:48:28.438Z,17.25
2022-11-13T12:51:18.480Z,14.10
2022-11-13T12:54:03.857Z,15.23
2022-11-13T12:56:49.271Z,15.88
2022-11-13T12:59:39.184Z,16.75
2022-11-13T13:03:06.981Z,14.38
2022-11-13T13:06:20.604Z,15.30
2022-11-13T13:09:18.669Z,15.27
2022-11-13T13:12:31.815Z,15.05
2022-11-13T13:15:39.874Z,15.07
2022-11-13T13:18:32.314Z,14.73
2022-11-13T13:21:19.472Z,16.27
2022-11-13T13:24:26.076Z,16.25
2022-11-13T13:27:30.128Z,15.57
2022-11-13T13:30:21.356Z,19.13
2022-11-13T13:33:22.194Z,24.17
2022-11-13T13:36:29.508Z,17.27
2022-11-13T13:45:26.811Z,16.75
2022-11-13T13:48:15.450Z,16.70
2022-11-13T13:51:02.096Z,17.10
2022-11-13T13:53:49.136Z,18.55
2022-11-13T13:56:40.139Z,17.88
2022-11-13T13:59:32.023Z,21.33
2022-11-13T14:02:19.824Z,17.23
2022-11-13T14:05:29.064Z,17.02
2022-11-13T14:08:19.195Z,16.50
2022-11-13T14:11:18.224Z,18.38
2022-11-13T14:14:21.470Z,17.77
2022-11-13T14:17:08.881Z,17.45
2022-11-13T14:19:55.683Z,17.73
2022-11-13T14:22:43.018Z,17.77
2022-11-13T14:25:29.232Z,17.90
2022-11-13T14:28:53.645Z,19.77
2022-11-13T14:31:39.111Z,19.63
2022-11-13T14:34:24.411Z,19.42
2022-11-13T14:37:33.011Z,18.75
2022-11-13T14:40:26.772Z,19.88
2022-11-13T14:43:30.947Z,24.38
2022-11-13T14:46:44.224Z,22.60
2022-11-13T14:49:35.756Z,21.35
2022-11-13T14:52:26.118Z,20.50
2022-11-13T14:55:23.641Z,21.10
2022-11-13T14:58:12.808Z,20.33
2022-11-13T15:00:59.797Z,20.40
2022-11-13T15:03:46.393Z,20.52
2022-11-13T15:06:38.053Z,20.55
2022-11-13T15:09:25.406Z,20.45
2022-11-13T15:12:12.284Z,20.73
2022-11-13T15:14:57.344Z,21.50
2022-11-13T15:17:44.744Z,20.95
2022-11-13T15:20:30.927Z,20.20
2022-11-13T15:23:16.649Z,20.70
2022-11-13T15:26:01.934Z,20.67
2022-11-13T15:28:47.230Z,20.10
2022-11-13T15:31:34.032Z,20.40
2022-11-13T15:34:19.212Z,20.55
2022-11-13T15:37:12.116Z,20.40
2022-11-13T15:39:57.313Z,21.75
2022-11-13T15:42:43.754Z,20.85
2022-11-13T15:45:28.907Z,23.13
2022-11-13T15:48:13.961Z,21.95
2022-11-13T15:50:59.209Z,23.02
2022-11-13T15:53:48.359Z,20.08
2022-11-13T15:56:33.685Z,19.25
2022-11-13T15:59:18.650Z,19.98
2022-11-13T16:02:04.065Z,20.27
2022-11-13T16:04:56.500Z,19.70
2022-11-13T16:07:42.607Z,21.38
2022-11-13T16:10:27.750Z,20.08
2022-11-13T16:13:13.168Z,21.17
2022-11-13T16:15:59.647Z,21.35
2022-11-13T16:18:45.029Z,20.48
2022-11-13T16:21:30.806Z,21.17
2022-11-13T16:24:18.793Z,20.75
2022-11-13T16:27:06.541Z,20.60
2022-11-13T16:29:51.965Z,21.40
2022-11-13T16:32:36.962Z,23.13
2022-11-13T16:35:22.077Z,21.75
2022-11-13T16:38:12.845Z,22.65
2022-11-13T16:40:58.036Z,20.50
2022-11-13T16:43:44.252Z,19.98
2022-11-13T16:46:29.295Z,20.13
2022-11-13T16:49:19.051Z,20.60
2022-11-13T16:52:05.054Z,23.42
2022-11-13T16:54:51.512Z,21.92
2022-11-13T16:57:37.601Z,20.65
2022-11-13T17:00:25.376Z,22.90
2022-11-13T17:03:10.452Z,20.88
2022-11-13T17:05:55.628Z,20.63
2022-11-13T17:08:41.070Z,20.75
2022-11-13T17:11:29.399Z,18.52
2022-11-13T17:14:14.397Z,18.50
2022-11-13T17:16:59.725Z,19.10
2022-11-13T17:19:44.708Z,17.60
2022-11-13T17:22:29.819Z,17.30
2022-11-13T17:25:16.891Z,18.73
2022-11-13T17:28:01.827Z,19.80
2022-11-13T17:30:47.172Z,21.58
2022-11-13T17:33:32.460Z,21.48
2022-11-13T17:36:17.824Z,20.60
2022-11-13T17:39:04.066Z,20.42
2022-11-13T17:41:50.632Z,19.65
2022-11-13T17:44:36.061Z,19.90
2022-11-13T17:47:21.385Z,22.20
2022-11-13T17:50:08.026Z,21.50
2022-11-13T17:52:53.328Z,21.02
2022-11-13T17:55:38.408Z,20.88
2022-11-13T17:58:24.654Z,21.73
2022-11-13T18:01:16.121Z,20.90
2022-11-13T18:04:01.359Z,22.60
2022-11-13T18:06:46.994Z,22.52
2022-11-13T18:09:32.679Z,23.92
2022-11-13T18:12:18.214Z,23.75
2022-11-13T18:15:04.597Z,24.05
2022-11-13T18:17:49.961Z,32.03
2022-11-13T18:20:38.438Z,92.35
2022-11-13T18:23:23.901Z,38.17
2022-11-13T18:26:19.331Z,26.45
2022-11-13T18:29:04.915Z,23.10
2022-11-13T18:31:50.119Z,22.50
2022-11-13T18:34:35.216Z,23.33
2022-11-13T18:37:20.415Z,23.58
2022-11-13T18:40:06.805Z,20.80
2022-11-13T18:42:52.032Z,22.55
2022-11-13T18:45:37.612Z,24.85
2022-11-13T18:48:23.105Z,26.10
2022-11-13T18:51:12.142Z,21.42
2022-11-13T18:53:57.300Z,20.73
2022-11-13T18:56:42.756Z,22.10
2022-11-13T18:59:28.437Z,21.75
2022-11-13T19:02:14.117Z,20.25
2022-11-13T19:04:59.544Z,21.90
2022-11-13T19:07:44.784Z,22.30
2022-11-13T19:10:30.384Z,22.65
2022-11-13T19:13:15.562Z,25.20
2022-11-13T19:16:05.870Z,22.83
2022-11-13T19:18:54.192Z,23.40
2022-11-13T19:21:39.212Z,23.80
2022-11-13T19:24:24.154Z,28.67
2022-11-13T19:27:09.389Z,27.67
2022-11-13T19:29:54.654Z,32.13
2022-11-13T19:32:39.911Z,43.08
2022-11-13T19:35:26.314Z,31.88
2022-11-13T19:38:11.619Z,27.05
2022-11-13T19:40:57.140Z,25.67
2022-11-13T19:43:42.234Z,25.45
2022-11-13T19:46:28.651Z,20.27
2022-11-13T19:49:13.762Z,21.33
2022-11-13T19:52:01.425Z,22.85
2022-11-13T19:54:46.859Z,25.80
2022-11-13T19:57:31.955Z,30.65
2022-11-13T20:00:17.927Z,29.50
2022-11-13T20:03:07.416Z,31.50
2022-11-13T20:06:01.030Z,23.63
2022-11-13T20:08:46.107Z,23.63
2022-11-13T20:11:31.477Z,22.67
2022-11-13T20:14:16.774Z,21.42
2022-11-13T20:17:01.701Z,23.75
2022-11-13T20:19:47.023Z,21.40
2022-11-13T20:22:32.384Z,22.70
2022-11-13T20:25:17.787Z,21.52
2022-11-13T20:28:02.783Z,21.90
2022-11-13T20:30:48.319Z,22.00
2022-11-13T20:33:34.918Z,21.38
2022-11-13T20:36:20.466Z,21.27
2022-11-13T20:39:09.103Z,21.80
2022-11-13T20:41:54.890Z,21.30
2022-11-13T20:44:40.158Z,20.45
2022-11-13T20:47:25.365Z,20.95
2022-11-13T20:50:11.591Z,22.35
2022-11-13T20:52:56.778Z,20.80
2022-11-13T20:55:43.105Z,21.75
2022-11-13T20:58:28.679Z,22.30
2022-11-13T21:01:16.882Z,21.33
2022-11-13T21:04:02.888Z,20.58
2022-11-13T21:06:48.435Z,20.70
2022-11-13T21:09:33.998Z,21.40
2022-11-13T21:12:19.330Z,20.95
2022-11-13T21:15:05.231Z,21.17
2022-11-13T21:17:51.447Z,21.25
2022-11-13T21:20:37.389Z,21.75
2022-11-13T21:23:22.953Z,21.25
2022-11-13T21:26:09.185Z,20.92
2022-11-13T21:28:56.277Z,21.80
2022-11-13T21:31:41.631Z,20.85
2022-11-13T21:34:26.570Z,20.23
2022-11-13T21:37:14.306Z,21.15
2022-11-13T21:39:59.804Z,20.17
2022-11-13T21:42:45.360Z,20.67
2022-11-13T21:45:33.512Z,20.10
2022-11-13T21:48:18.637Z,20.42
2022-11-13T21:51:04.173Z,21.20
2022-11-13T21:53:49.672Z,20.67
2022-11-13T21:56:36.629Z,21.08
2022-11-13T21:59:21.632Z,20.45
2022-11-13T22:02:10.448Z,19.70
2022-11-13T22:04:55.617Z,20.33
2022-11-13T22:07:40.718Z,20.40
2022-11-13T22:15:46.910Z,20.88
2022-11-13T22:18:31.724Z,19.88
2022-11-13T22:21:16.587Z,19.50
2022-11-13T22:24:01.823Z,20.75
2022-11-13T22:26:47.076Z,21.48
2022-11-13T22:29:31.448Z,20.85
2022-11-13T22:32:15.844Z,22.02
2022-11-13T22:41:00.134Z,20.38
2022-11-13T22:43:46.515Z,22.13
2022-11-13T22:46:32.783Z,22.35
2022-11-13T22:49:18.421Z,23.00
2022-11-13T22:52:03.143Z,22.40
2022-11-13T22:54:47.611Z,23.00
2022-11-13T23:00:21.791Z,22.63
2022-11-13T23:03:06.194Z,22.73
2022-11-13T23:05:50.693Z,22.75
2022-11-13T23:08:38.292Z,25.08
2022-11-13T23:14:09.928Z,24.33
2022-11-13T23:16:54.897Z,24.95
2022-11-13T23:19:39.875Z,24.75
2022-11-13T23:22:24.774Z,25.05
2022-11-13T23:25:10.115Z,23.88
2022-11-13T23:27:55.246Z,23.77
2022-11-13T23:30:40.511Z,24.02
2022-11-13T23:33:25.536Z,24.35
2022-11-13T23:36:12.498Z,24.35
2022-11-13T23:38:57.648Z,25.02
2022-11-13T23:41:42.492Z,24.05
2022-11-13T23:44:27.798Z,24.52
2022-11-13T23:47:12.775Z,24.10
2022-11-13T23:49:58.265Z,23.80
2022-11-13T23:52:43.524Z,23.88
2022-11-13T23:55:28.901Z,23.48
2022-11-13T23:58:15.767Z,22.90
